sensor_id;sensor_type;location;lat;lon;timestamp;temperature;humidity
29201;DHT22;16244;51.956;12.980;2024-02-15T00:02:23;8.20;99.90
29201;DHT22;16244;51.956;12.980;2024-02-15T00:04:51;8.20;99.90
29201;DHT22;16244;51.956;12.980;2024-02-15T00:07:18;8.20;99.90
29201;DHT22;16244;51.956;12.980;2024-02-15T00:09:49;8.20;99.90
29201;DHT22;16244;51.956;12.980;2024-02-15T00:12:17;8.20;99.90
29201;DHT22;16244;51.956;12.980;2024-02-15T00:14:45;8.20;99.90
29201;DHT22;16244;51.956;12.980;2024-02-15T00:17:12;8.20;99.90
29201;DHT22;16244;51.956;12.980;2024-02-15T00:19:40;8.20;99.90
29201;DHT22;16244;51.956;12.980;2024-02-15T00:22:07;8.20;99.90
29201;DHT22;16244;51.956;12.980;2024-02-15T00:24:36;8.30;99.90
29201;DHT22;16244;51.956;12.980;2024-02-15T00:27:06;8.30;99.90
29201;DHT22;16244;51.956;12.980;2024-02-15T00:29:34;8.30;99.90
29201;DHT22;16244;51.956;12.980;2024-02-15T00:32:01;8.30;99.90
29201;DHT22;16244;51.956;12.980;2024-02-15T00:34:29;8.30;99.90
29201;DHT22;16244;51.956;12.980;2024-02-15T00:36:57;8.30;99.90
29201;DHT22;16244;51.956;12.980;2024-02-15T00:39:24;8.30;99.90
29201;DHT22;16244;51.956;12.980;2024-02-15T00:41:52;8.30;99.90
29201;DHT22;16244;51.956;12.980;2024-02-15T00:44:23;8.30;99.90
29201;DHT22;16244;51.956;12.980;2024-02-15T00:46:50;8.30;99.90
29201;DHT22;16244;51.956;12.980;2024-02-15T00:49:18;8.30;99.90
29201;DHT22;16244;51.956;12.980;2024-02-15T00:51:47;8.30;99.90
29201;DHT22;16244;51.956;12.980;2024-02-15T00:54:15;8.30;99.90
29201;DHT22;16244;51.956;12.980;2024-02-15T00:56:43;8.30;99.90
29201;DHT22;16244;51.956;12.980;2024-02-15T00:59:10;8.30;99.90
29201;DHT22;16244;51.956;12.980;2024-02-15T01:01:39;8.30;99.90
29201;DHT22;16244;51.956;12.980;2024-02-15T01:04:07;8.30;99.90
29201;DHT22;16244;51.956;12.980;2024-02-15T01:06:34;8.30;99.90
29201;DHT22;16244;51.956;12.980;2024-02-15T01:09:02;8.40;99.90
29201;DHT22;16244;51.956;12.980;2024-02-15T01:11:30;8.40;99.90
29201;DHT22;16244;51.956;12.980;2024-02-15T01:13:58;8.30;99.90
29201;DHT22;16244;51.956;12.980;2024-02-15T01:16:26;8.30;99.90
29201;DHT22;16244;51.956;12.980;2024-02-15T01:18:54;8.30;99.90
29201;DHT22;16244;51.956;12.980;2024-02-15T01:21:22;8.30;99.90
29201;DHT22;16244;51.956;12.980;2024-02-15T01:23:49;8.30;99.90
29201;DHT22;16244;51.956;12.980;2024-02-15T01:26:24;8.30;99.90
29201;DHT22;16244;51.956;12.980;2024-02-15T01:28:52;8.30;99.90
29201;DHT22;16244;51.956;12.980;2024-02-15T01:31:19;8.30;99.90
29201;DHT22;16244;51.956;12.980;2024-02-15T01:33:48;8.40;99.90
29201;DHT22;16244;51.956;12.980;2024-02-15T01:36:17;8.30;99.90
29201;DHT22;16244;51.956;12.980;2024-02-15T01:38:45;8.30;99.90
29201;DHT22;16244;51.956;12.980;2024-02-15T01:41:12;8.30;99.90
29201;DHT22;16244;51.956;12.980;2024-02-15T01:43:43;8.30;99.90
29201;DHT22;16244;51.956;12.980;2024-02-15T01:46:11;8.40;99.90
29201;DHT22;16244;51.956;12.980;2024-02-15T01:48:40;8.40;99.90
29201;DHT22;16244;51.956;12.980;2024-02-15T01:51:09;8.40;99.90
29201;DHT22;16244;51.956;12.980;2024-02-15T01:53:38;8.40;99.90
29201;DHT22;16244;51.956;12.980;2024-02-15T01:56:07;8.40;99.90
29201;DHT22;16244;51.956;12.980;2024-02-15T01:58:35;8.40;99.90
29201;DHT22;16244;51.956;12.980;2024-02-15T02:01:03;8.40;99.90
29201;DHT22;16244;51.956;12.980;2024-02-15T02:03:31;8.40;99.90
29201;DHT22;16244;51.956;12.980;2024-02-15T02:06:00;8.40;99.90
29201;DHT22;16244;51.956;12.980;2024-02-15T02:08:28;8.40;99.90
29201;DHT22;16244;51.956;12.980;2024-02-15T02:10:56;8.50;99.90
29201;DHT22;16244;51.956;12.980;2024-02-15T02:13:24;8.50;99.90
29201;DHT22;16244;51.956;12.980;2024-02-15T02:15:51;8.50;99.90
29201;DHT22;16244;51.956;12.980;2024-02-15T02:18:19;8.50;99.90
29201;DHT22;16244;51.956;12.980;2024-02-15T02:20:46;8.50;99.90
29201;DHT22;16244;51.956;12.980;2024-02-15T02:23:15;8.50;99.90
29201;DHT22;16244;51.956;12.980;2024-02-15T02:25:47;8.50;99.90
29201;DHT22;16244;51.956;12.980;2024-02-15T02:28:15;8.60;99.90
29201;DHT22;16244;51.956;12.980;2024-02-15T02:30:43;8.60;99.90
29201;DHT22;16244;51.956;12.980;2024-02-15T02:33:11;8.60;99.90
29201;DHT22;16244;51.956;12.980;2024-02-15T02:35:44;8.60;99.90
29201;DHT22;16244;51.956;12.980;2024-02-15T02:38:13;8.60;99.90
29201;DHT22;16244;51.956;12.980;2024-02-15T02:40:40;8.70;99.90
29201;DHT22;16244;51.956;12.980;2024-02-15T02:43:09;8.70;99.90
29201;DHT22;16244;51.956;12.980;2024-02-15T02:45:37;8.60;99.90
29201;DHT22;16244;51.956;12.980;2024-02-15T02:48:05;8.60;99.90
29201;DHT22;16244;51.956;12.980;2024-02-15T02:50:33;8.60;99.90
29201;DHT22;16244;51.956;12.980;2024-02-15T02:53:00;8.60;99.90
29201;DHT22;16244;51.956;12.980;2024-02-15T02:55:28;8.60;99.90
29201;DHT22;16244;51.956;12.980;2024-02-15T02:57:55;8.60;99.90
29201;DHT22;16244;51.956;12.980;2024-02-15T03:00:24;8.70;99.90
29201;DHT22;16244;51.956;12.980;2024-02-15T03:02:53;8.70;99.90
29201;DHT22;16244;51.956;12.980;2024-02-15T03:05:23;8.70;99.90
29201;DHT22;16244;51.956;12.980;2024-02-15T03:07:51;8.70;99.90
29201;DHT22;16244;51.956;12.980;2024-02-15T03:10:19;8.70;99.90
29201;DHT22;16244;51.956;12.980;2024-02-15T03:12:46;8.70;99.90
29201;DHT22;16244;51.956;12.980;2024-02-15T03:15:14;8.70;99.90
29201;DHT22;16244;51.956;12.980;2024-02-15T03:17:46;8.70;99.90
29201;DHT22;16244;51.956;12.980;2024-02-15T03:20:13;8.70;99.90
29201;DHT22;16244;51.956;12.980;2024-02-15T03:22:51;8.80;99.90
29201;DHT22;16244;51.956;12.980;2024-02-15T03:25:19;8.80;99.90
29201;DHT22;16244;51.956;12.980;2024-02-15T03:27:50;8.80;99.90
29201;DHT22;16244;51.956;12.980;2024-02-15T03:30:19;8.80;99.90
29201;DHT22;16244;51.956;12.980;2024-02-15T03:32:48;8.80;99.90
29201;DHT22;16244;51.956;12.980;2024-02-15T03:35:17;8.80;99.90
29201;DHT22;16244;51.956;12.980;2024-02-15T03:37:45;8.80;99.90
29201;DHT22;16244;51.956;12.980;2024-02-15T03:40:13;8.80;99.90
29201;DHT22;16244;51.956;12.980;2024-02-15T03:42:40;8.80;99.90
29201;DHT22;16244;51.956;12.980;2024-02-15T03:45:08;8.80;99.90
29201;DHT22;16244;51.956;12.980;2024-02-15T03:47:37;8.80;99.90
29201;DHT22;16244;51.956;12.980;2024-02-15T03:50:08;8.80;99.90
29201;DHT22;16244;51.956;12.980;2024-02-15T03:52:36;8.80;99.90
29201;DHT22;16244;51.956;12.980;2024-02-15T03:55:04;8.70;99.90
29201;DHT22;16244;51.956;12.980;2024-02-15T03:57:33;8.70;99.90
29201;DHT22;16244;51.956;12.980;2024-02-15T04:00:01;8.70;99.90
29201;DHT22;16244;51.956;12.980;2024-02-15T04:02:30;8.70;99.90
29201;DHT22;16244;51.956;12.980;2024-02-15T04:04:57;8.70;99.90
29201;DHT22;16244;51.956;12.980;2024-02-15T04:07:26;8.70;99.90
29201;DHT22;16244;51.956;12.980;2024-02-15T04:09:54;8.70;99.90
29201;DHT22;16244;51.956;12.980;2024-02-15T04:12:22;8.80;99.90
29201;DHT22;16244;51.956;12.980;2024-02-15T04:14:49;8.70;99.90
29201;DHT22;16244;51.956;12.980;2024-02-15T04:17:17;8.70;99.90
29201;DHT22;16244;51.956;12.980;2024-02-15T04:19:48;8.70;99.90
29201;DHT22;16244;51.956;12.980;2024-02-15T04:22:16;8.70;99.90
29201;DHT22;16244;51.956;12.980;2024-02-15T04:24:45;8.70;99.90
29201;DHT22;16244;51.956;12.980;2024-02-15T04:27:13;8.70;99.90
29201;DHT22;16244;51.956;12.980;2024-02-15T04:29:41;8.70;99.90
29201;DHT22;16244;51.956;12.980;2024-02-15T04:32:10;8.70;99.90
29201;DHT22;16244;51.956;12.980;2024-02-15T04:34:38;8.70;99.90
29201;DHT22;16244;51.956;12.980;2024-02-15T04:37:06;8.70;99.90
29201;DHT22;16244;51.956;12.980;2024-02-15T04:39:34;8.70;99.90
29201;DHT22;16244;51.956;12.980;2024-02-15T04:42:04;8.80;99.90
29201;DHT22;16244;51.956;12.980;2024-02-15T04:44:32;8.70;99.90
29201;DHT22;16244;51.956;12.980;2024-02-15T04:47:01;8.70;99.90
29201;DHT22;16244;51.956;12.980;2024-02-15T04:49:30;8.70;99.90
29201;DHT22;16244;51.956;12.980;2024-02-15T04:51:57;8.80;99.90
29201;DHT22;16244;51.956;12.980;2024-02-15T04:54:24;8.80;99.90
29201;DHT22;16244;51.956;12.980;2024-02-15T04:56:52;8.90;99.90
29201;DHT22;16244;51.956;12.980;2024-02-15T04:59:22;8.90;99.90
29201;DHT22;16244;51.956;12.980;2024-02-15T05:01:52;8.90;99.90
29201;DHT22;16244;51.956;12.980;2024-02-15T05:04:19;8.90;99.90
29201;DHT22;16244;51.956;12.980;2024-02-15T05:06:47;8.80;99.90
29201;DHT22;16244;51.956;12.980;2024-02-15T05:09:14;8.80;99.90
29201;DHT22;16244;51.956;12.980;2024-02-15T05:11:44;8.80;99.90
29201;DHT22;16244;51.956;12.980;2024-02-15T05:14:13;8.90;99.90
29201;DHT22;16244;51.956;12.980;2024-02-15T05:16:47;8.80;99.90
29201;DHT22;16244;51.956;12.980;2024-02-15T05:19:15;8.80;99.90
29201;DHT22;16244;51.956;12.980;2024-02-15T05:21:43;8.80;99.90
29201;DHT22;16244;51.956;12.980;2024-02-15T05:24:12;8.80;99.90
29201;DHT22;16244;51.956;12.980;2024-02-15T05:26:40;8.80;99.90
29201;DHT22;16244;51.956;12.980;2024-02-15T05:29:09;8.80;99.90
29201;DHT22;16244;51.956;12.980;2024-02-15T05:31:37;8.80;99.90
29201;DHT22;16244;51.956;12.980;2024-02-15T05:34:07;8.80;99.90
29201;DHT22;16244;51.956;12.980;2024-02-15T05:36:37;8.80;99.90
29201;DHT22;16244;51.956;12.980;2024-02-15T05:39:05;8.80;99.90
29201;DHT22;16244;51.956;12.980;2024-02-15T05:41:33;8.80;99.90
29201;DHT22;16244;51.956;12.980;2024-02-15T05:44:01;8.80;99.90
29201;DHT22;16244;51.956;12.980;2024-02-15T05:46:31;8.80;99.90
29201;DHT22;16244;51.956;12.980;2024-02-15T05:48:58;8.80;99.90
29201;DHT22;16244;51.956;12.980;2024-02-15T05:51:29;8.80;99.90
29201;DHT22;16244;51.956;12.980;2024-02-15T05:53:57;8.80;99.90
29201;DHT22;16244;51.956;12.980;2024-02-15T05:56:25;8.70;99.90
29201;DHT22;16244;51.956;12.980;2024-02-15T05:58:55;8.80;99.90
29201;DHT22;16244;51.956;12.980;2024-02-15T06:01:23;8.70;99.90
29201;DHT22;16244;51.956;12.980;2024-02-15T06:03:50;8.80;99.90
29201;DHT22;16244;51.956;12.980;2024-02-15T06:06:21;8.80;99.90
29201;DHT22;16244;51.956;12.980;2024-02-15T06:08:50;8.80;99.90
29201;DHT22;16244;51.956;12.980;2024-02-15T06:11:19;8.80;99.90
29201;DHT22;16244;51.956;12.980;2024-02-15T06:13:47;8.80;99.90
29201;DHT22;16244;51.956;12.980;2024-02-15T06:16:14;8.80;99.90
29201;DHT22;16244;51.956;12.980;2024-02-15T06:18:42;8.70;99.90
29201;DHT22;16244;51.956;12.980;2024-02-15T06:21:09;8.70;99.90
29201;DHT22;16244;51.956;12.980;2024-02-15T06:23:37;8.70;99.90
29201;DHT22;16244;51.956;12.980;2024-02-15T06:26:06;8.70;99.90
29201;DHT22;16244;51.956;12.980;2024-02-15T06:28:33;8.70;99.90
29201;DHT22;16244;51.956;12.980;2024-02-15T06:31:19;8.70;99.90
29201;DHT22;16244;51.956;12.980;2024-02-15T06:34:04;8.80;99.90
29201;DHT22;16244;51.956;12.980;2024-02-15T06:36:52;8.80;99.90
29201;DHT22;16244;51.956;12.980;2024-02-15T06:39:37;8.80;99.90
29201;DHT22;16244;51.956;12.980;2024-02-15T06:42:14;8.80;99.90
29201;DHT22;16244;51.956;12.980;2024-02-15T06:44:42;8.80;99.90
29201;DHT22;16244;51.956;12.980;2024-02-15T06:47:10;8.80;99.90
29201;DHT22;16244;51.956;12.980;2024-02-15T06:49:38;8.90;99.90
29201;DHT22;16244;51.956;12.980;2024-02-15T06:52:07;8.90;99.90
29201;DHT22;16244;51.956;12.980;2024-02-15T06:54:34;8.80;99.90
29201;DHT22;16244;51.956;12.980;2024-02-15T06:57:03;8.90;99.90
29201;DHT22;16244;51.956;12.980;2024-02-15T06:59:32;8.90;99.90
29201;DHT22;16244;51.956;12.980;2024-02-15T07:02:00;9.00;99.90
29201;DHT22;16244;51.956;12.980;2024-02-15T07:04:31;9.00;99.90
29201;DHT22;16244;51.956;12.980;2024-02-15T07:06:59;9.00;99.90
29201;DHT22;16244;51.956;12.980;2024-02-15T07:09:28;9.00;99.90
29201;DHT22;16244;51.956;12.980;2024-02-15T07:11:56;9.00;99.90
29201;DHT22;16244;51.956;12.980;2024-02-15T07:14:25;9.00;99.90
29201;DHT22;16244;51.956;12.980;2024-02-15T07:16:55;9.10;99.90
29201;DHT22;16244;51.956;12.980;2024-02-15T07:19:24;9.20;99.90
29201;DHT22;16244;51.956;12.980;2024-02-15T07:21:53;9.10;99.90
29201;DHT22;16244;51.956;12.980;2024-02-15T07:24:22;9.10;99.90
29201;DHT22;16244;51.956;12.980;2024-02-15T07:26:53;9.20;99.90
29201;DHT22;16244;51.956;12.980;2024-02-15T07:29:21;9.20;99.90
29201;DHT22;16244;51.956;12.980;2024-02-15T07:31:49;9.20;99.90
29201;DHT22;16244;51.956;12.980;2024-02-15T07:34:18;9.20;99.90
29201;DHT22;16244;51.956;12.980;2024-02-15T07:36:46;9.20;99.90
29201;DHT22;16244;51.956;12.980;2024-02-15T07:39:13;9.20;99.90
29201;DHT22;16244;51.956;12.980;2024-02-15T07:41:49;9.20;99.90
29201;DHT22;16244;51.956;12.980;2024-02-15T07:44:17;9.30;99.90
29201;DHT22;16244;51.956;12.980;2024-02-15T07:46:46;9.30;99.90
29201;DHT22;16244;51.956;12.980;2024-02-15T07:49:13;9.30;99.90
29201;DHT22;16244;51.956;12.980;2024-02-15T07:51:44;9.40;99.90
29201;DHT22;16244;51.956;12.980;2024-02-15T07:54:12;9.40;99.90
29201;DHT22;16244;51.956;12.980;2024-02-15T07:56:39;9.50;99.90
29201;DHT22;16244;51.956;12.980;2024-02-15T07:59:07;9.60;99.90
29201;DHT22;16244;51.956;12.980;2024-02-15T08:01:34;9.60;99.90
29201;DHT22;16244;51.956;12.980;2024-02-15T08:04:02;9.60;99.90
29201;DHT22;16244;51.956;12.980;2024-02-15T08:06:29;9.70;99.90
29201;DHT22;16244;51.956;12.980;2024-02-15T08:09:00;9.70;99.90
29201;DHT22;16244;51.956;12.980;2024-02-15T08:11:28;9.80;99.90
29201;DHT22;16244;51.956;12.980;2024-02-15T08:13:56;9.80;99.90
29201;DHT22;16244;51.956;12.980;2024-02-15T08:16:25;9.90;99.90
29201;DHT22;16244;51.956;12.980;2024-02-15T08:18:54;9.90;99.90
29201;DHT22;16244;51.956;12.980;2024-02-15T08:21:25;9.90;99.90
29201;DHT22;16244;51.956;12.980;2024-02-15T08:23:53;9.90;99.90
29201;DHT22;16244;51.956;12.980;2024-02-15T08:26:22;9.90;99.90
29201;DHT22;16244;51.956;12.980;2024-02-15T08:28:50;9.90;99.90
29201;DHT22;16244;51.956;12.980;2024-02-15T08:31:21;10.10;99.90
29201;DHT22;16244;51.956;12.980;2024-02-15T08:33:49;10.10;99.90
29201;DHT22;16244;51.956;12.980;2024-02-15T08:36:16;10.10;99.90
29201;DHT22;16244;51.956;12.980;2024-02-15T08:38:45;10.10;99.90
29201;DHT22;16244;51.956;12.980;2024-02-15T08:41:13;10.10;99.90
29201;DHT22;16244;51.956;12.980;2024-02-15T08:43:41;10.10;99.90
29201;DHT22;16244;51.956;12.980;2024-02-15T08:46:09;10.20;99.90
29201;DHT22;16244;51.956;12.980;2024-02-15T08:48:37;10.20;99.90
29201;DHT22;16244;51.956;12.980;2024-02-15T08:51:05;10.30;99.90
29201;DHT22;16244;51.956;12.980;2024-02-15T08:53:35;10.30;99.90
29201;DHT22;16244;51.956;12.980;2024-02-15T08:56:04;10.30;99.90
29201;DHT22;16244;51.956;12.980;2024-02-15T08:58:32;10.40;99.90
29201;DHT22;16244;51.956;12.980;2024-02-15T09:01:02;10.30;99.90
29201;DHT22;16244;51.956;12.980;2024-02-15T09:03:30;10.40;99.90
29201;DHT22;16244;51.956;12.980;2024-02-15T09:05:58;10.50;99.90
29201;DHT22;16244;51.956;12.980;2024-02-15T09:08:29;10.50;99.90
29201;DHT22;16244;51.956;12.980;2024-02-15T09:10:56;10.70;99.90
29201;DHT22;16244;51.956;12.980;2024-02-15T09:13:24;10.80;99.90
29201;DHT22;16244;51.956;12.980;2024-02-15T09:15:52;10.80;99.90
29201;DHT22;16244;51.956;12.980;2024-02-15T09:18:21;10.90;99.90
29201;DHT22;16244;51.956;12.980;2024-02-15T09:20:49;10.90;99.90
29201;DHT22;16244;51.956;12.980;2024-02-15T09:23:21;10.90;99.90
29201;DHT22;16244;51.956;12.980;2024-02-15T09:25:50;10.90;99.90
29201;DHT22;16244;51.956;12.980;2024-02-15T09:28:18;10.80;99.90
29201;DHT22;16244;51.956;12.980;2024-02-15T09:30:48;10.90;99.90
29201;DHT22;16244;51.956;12.980;2024-02-15T09:33:20;10.90;99.90
29201;DHT22;16244;51.956;12.980;2024-02-15T09:35:48;11.00;99.90
29201;DHT22;16244;51.956;12.980;2024-02-15T09:38:15;10.90;99.90
29201;DHT22;16244;51.956;12.980;2024-02-15T09:40:48;11.00;99.90
29201;DHT22;16244;51.956;12.980;2024-02-15T09:43:16;11.00;99.90
29201;DHT22;16244;51.956;12.980;2024-02-15T09:45:44;11.00;99.90
29201;DHT22;16244;51.956;12.980;2024-02-15T09:48:11;11.10;99.90
29201;DHT22;16244;51.956;12.980;2024-02-15T09:50:42;11.10;99.90
29201;DHT22;16244;51.956;12.980;2024-02-15T09:53:13;11.00;99.90
29201;DHT22;16244;51.956;12.980;2024-02-15T09:55:42;11.10;99.90
29201;DHT22;16244;51.956;12.980;2024-02-15T09:58:10;11.10;99.90
29201;DHT22;16244;51.956;12.980;2024-02-15T10:00:38;11.10;99.90
29201;DHT22;16244;51.956;12.980;2024-02-15T10:03:06;11.10;99.90
29201;DHT22;16244;51.956;12.980;2024-02-15T10:05:34;11.20;99.90
29201;DHT22;16244;51.956;12.980;2024-02-15T10:08:04;11.20;99.90
29201;DHT22;16244;51.956;12.980;2024-02-15T10:10:33;11.20;99.90
29201;DHT22;16244;51.956;12.980;2024-02-15T10:13:02;11.30;99.90
29201;DHT22;16244;51.956;12.980;2024-02-15T10:15:31;11.30;99.90
29201;DHT22;16244;51.956;12.980;2024-02-15T10:18:01;11.40;99.90
29201;DHT22;16244;51.956;12.980;2024-02-15T10:20:29;11.40;99.90
29201;DHT22;16244;51.956;12.980;2024-02-15T10:23:12;11.40;99.90
29201;DHT22;16244;51.956;12.980;2024-02-15T10:25:40;11.50;99.90
29201;DHT22;16244;51.956;12.980;2024-02-15T10:28:09;11.50;99.90
29201;DHT22;16244;51.956;12.980;2024-02-15T10:30:37;11.60;99.90
29201;DHT22;16244;51.956;12.980;2024-02-15T10:33:06;11.70;99.90
29201;DHT22;16244;51.956;12.980;2024-02-15T10:35:34;11.80;99.90
29201;DHT22;16244;51.956;12.980;2024-02-15T10:38:06;11.90;99.90
29201;DHT22;16244;51.956;12.980;2024-02-15T10:40:37;12.10;99.90
29201;DHT22;16244;51.956;12.980;2024-02-15T10:43:05;12.20;99.90
29201;DHT22;16244;51.956;12.980;2024-02-15T10:45:34;12.20;99.90
29201;DHT22;16244;51.956;12.980;2024-02-15T10:48:05;12.20;99.90
29201;DHT22;16244;51.956;12.980;2024-02-15T10:50:33;12.20;99.90
29201;DHT22;16244;51.956;12.980;2024-02-15T10:53:04;12.20;99.90
29201;DHT22;16244;51.956;12.980;2024-02-15T10:55:40;12.30;99.90
29201;DHT22;16244;51.956;12.980;2024-02-15T10:58:07;12.20;99.90
29201;DHT22;16244;51.956;12.980;2024-02-15T11:00:35;12.30;99.90
29201;DHT22;16244;51.956;12.980;2024-02-15T11:03:32;12.40;99.90
29201;DHT22;16244;51.956;12.980;2024-02-15T11:06:09;12.50;99.90
29201;DHT22;16244;51.956;12.980;2024-02-15T11:08:38;12.50;99.90
29201;DHT22;16244;51.956;12.980;2024-02-15T11:11:06;12.50;99.90
29201;DHT22;16244;51.956;12.980;2024-02-15T11:13:36;12.50;99.90
29201;DHT22;16244;51.956;12.980;2024-02-15T11:16:06;12.60;99.90
29201;DHT22;16244;51.956;12.980;2024-02-15T11:18:45;12.60;99.90
29201;DHT22;16244;51.956;12.980;2024-02-15T11:21:15;12.60;99.90
29201;DHT22;16244;51.956;12.980;2024-02-15T11:23:44;12.70;99.90
29201;DHT22;16244;51.956;12.980;2024-02-15T11:26:44;12.80;99.90
29201;DHT22;16244;51.956;12.980;2024-02-15T11:29:49;12.90;99.90
29201;DHT22;16244;51.956;12.980;2024-02-15T11:32:51;13.00;99.90
29201;DHT22;16244;51.956;12.980;2024-02-15T11:35:22;12.90;99.90
29201;DHT22;16244;51.956;12.980;2024-02-15T11:37:57;12.90;99.90
29201;DHT22;16244;51.956;12.980;2024-02-15T11:41:03;12.70;99.90
29201;DHT22;16244;51.956;12.980;2024-02-15T11:43:48;12.70;99.90
29201;DHT22;16244;51.956;12.980;2024-02-15T11:46:24;12.80;99.90
29201;DHT22;16244;51.956;12.980;2024-02-15T11:48:53;12.90;99.90
29201;DHT22;16244;51.956;12.980;2024-02-15T11:51:28;13.10;99.90
29201;DHT22;16244;51.956;12.980;2024-02-15T11:54:09;13.30;99.90
29201;DHT22;16244;51.956;12.980;2024-02-15T11:56:53;13.40;99.90
29201;DHT22;16244;51.956;12.980;2024-02-15T11:59:40;13.50;99.90
29201;DHT22;16244;51.956;12.980;2024-02-15T12:02:26;13.40;99.90
29201;DHT22;16244;51.956;12.980;2024-02-15T12:05:11;13.30;99.90
29201;DHT22;16244;51.956;12.980;2024-02-15T12:08:12;13.30;99.90
29201;DHT22;16244;51.956;12.980;2024-02-15T12:10:58;13.40;99.90
29201;DHT22;16244;51.956;12.980;2024-02-15T12:13:42;13.30;99.90
29201;DHT22;16244;51.956;12.980;2024-02-15T12:16:33;13.20;99.90
29201;DHT22;16244;51.956;12.980;2024-02-15T12:19:18;13.10;99.90
29201;DHT22;16244;51.956;12.980;2024-02-15T12:21:48;13.10;99.90
29201;DHT22;16244;51.956;12.980;2024-02-15T12:24:17;13.00;99.90
29201;DHT22;16244;51.956;12.980;2024-02-15T12:26:51;13.10;99.90
29201;DHT22;16244;51.956;12.980;2024-02-15T12:29:19;13.10;99.90
29201;DHT22;16244;51.956;12.980;2024-02-15T12:31:47;13.00;99.90
29201;DHT22;16244;51.956;12.980;2024-02-15T12:34:16;13.10;99.90
29201;DHT22;16244;51.956;12.980;2024-02-15T12:36:47;13.10;99.90
29201;DHT22;16244;51.956;12.980;2024-02-15T12:39:25;13.10;99.90
29201;DHT22;16244;51.956;12.980;2024-02-15T12:41:54;13.10;99.90
29201;DHT22;16244;51.956;12.980;2024-02-15T12:44:21;13.20;99.90
29201;DHT22;16244;51.956;12.980;2024-02-15T12:46:54;13.20;99.90
29201;DHT22;16244;51.956;12.980;2024-02-15T12:49:30;13.20;99.90
29201;DHT22;16244;51.956;12.980;2024-02-15T12:52:38;13.20;99.90
29201;DHT22;16244;51.956;12.980;2024-02-15T12:55:17;13.20;99.90
29201;DHT22;16244;51.956;12.980;2024-02-15T12:57:47;13.20;99.90
29201;DHT22;16244;51.956;12.980;2024-02-15T13:00:18;13.20;99.90
29201;DHT22;16244;51.956;12.980;2024-02-15T13:02:48;13.20;99.90
29201;DHT22;16244;51.956;12.980;2024-02-15T13:05:16;13.30;99.90
29201;DHT22;16244;51.956;12.980;2024-02-15T13:07:46;13.20;99.90
29201;DHT22;16244;51.956;12.980;2024-02-15T13:10:16;13.20;99.90
29201;DHT22;16244;51.956;12.980;2024-02-15T13:12:44;13.20;99.90
29201;DHT22;16244;51.956;12.980;2024-02-15T13:15:40;13.10;99.90
29201;DHT22;16244;51.956;12.980;2024-02-15T13:18:09;13.20;99.90
29201;DHT22;16244;51.956;12.980;2024-02-15T13:20:37;13.20;99.90
29201;DHT22;16244;51.956;12.980;2024-02-15T13:23:06;13.20;99.90
29201;DHT22;16244;51.956;12.980;2024-02-15T13:25:42;13.20;99.90
29201;DHT22;16244;51.956;12.980;2024-02-15T13:28:11;13.30;99.90
29201;DHT22;16244;51.956;12.980;2024-02-15T13:30:39;13.30;99.90
29201;DHT22;16244;51.956;12.980;2024-02-15T13:33:09;13.40;99.90
29201;DHT22;16244;51.956;12.980;2024-02-15T13:35:36;13.40;99.90
29201;DHT22;16244;51.956;12.980;2024-02-15T13:38:04;13.40;99.90
29201;DHT22;16244;51.956;12.980;2024-02-15T13:40:31;13.50;99.90
29201;DHT22;16244;51.956;12.980;2024-02-15T13:43:01;13.40;99.90
29201;DHT22;16244;51.956;12.980;2024-02-15T13:45:32;13.50;99.90
29201;DHT22;16244;51.956;12.980;2024-02-15T13:48:00;13.50;99.90
29201;DHT22;16244;51.956;12.980;2024-02-15T13:50:28;13.50;99.90
29201;DHT22;16244;51.956;12.980;2024-02-15T13:52:57;13.50;99.90
29201;DHT22;16244;51.956;12.980;2024-02-15T13:55:25;13.50;99.90
29201;DHT22;16244;51.956;12.980;2024-02-15T13:57:54;13.60;99.90
29201;DHT22;16244;51.956;12.980;2024-02-15T14:00:25;13.70;99.90
29201;DHT22;16244;51.956;12.980;2024-02-15T14:02:57;13.70;99.90
29201;DHT22;16244;51.956;12.980;2024-02-15T14:05:26;13.70;99.90
29201;DHT22;16244;51.956;12.980;2024-02-15T14:07:56;13.60;99.90
29201;DHT22;16244;51.956;12.980;2024-02-15T14:10:24;13.60;99.90
29201;DHT22;16244;51.956;12.980;2024-02-15T14:12:53;13.70;99.90
29201;DHT22;16244;51.956;12.980;2024-02-15T14:15:26;13.80;99.90
29201;DHT22;16244;51.956;12.980;2024-02-15T14:17:53;13.70;99.90
29201;DHT22;16244;51.956;12.980;2024-02-15T14:20:22;13.80;99.90
29201;DHT22;16244;51.956;12.980;2024-02-15T14:22:51;13.70;99.90
29201;DHT22;16244;51.956;12.980;2024-02-15T14:25:22;13.70;99.90
29201;DHT22;16244;51.956;12.980;2024-02-15T14:27:50;13.70;99.90
29201;DHT22;16244;51.956;12.980;2024-02-15T14:30:18;13.80;99.90
29201;DHT22;16244;51.956;12.980;2024-02-15T14:33:05;13.70;99.90
29201;DHT22;16244;51.956;12.980;2024-02-15T14:35:38;13.70;99.90
29201;DHT22;16244;51.956;12.980;2024-02-15T14:38:07;13.70;99.90
29201;DHT22;16244;51.956;12.980;2024-02-15T14:40:39;13.60;99.90
29201;DHT22;16244;51.956;12.980;2024-02-15T14:43:07;13.60;99.90
29201;DHT22;16244;51.956;12.980;2024-02-15T14:45:35;13.50;99.90
29201;DHT22;16244;51.956;12.980;2024-02-15T14:48:06;13.40;99.90
29201;DHT22;16244;51.956;12.980;2024-02-15T14:50:34;13.30;99.90
29201;DHT22;16244;51.956;12.980;2024-02-15T14:53:02;13.30;99.90
29201;DHT22;16244;51.956;12.980;2024-02-15T14:55:30;13.30;99.90
29201;DHT22;16244;51.956;12.980;2024-02-15T14:57:57;13.20;99.90
29201;DHT22;16244;51.956;12.980;2024-02-15T15:00:25;13.30;99.90
29201;DHT22;16244;51.956;12.980;2024-02-15T15:02:53;13.30;99.90
29201;DHT22;16244;51.956;12.980;2024-02-15T15:05:24;13.30;99.90
29201;DHT22;16244;51.956;12.980;2024-02-15T15:08:09;13.30;99.90
29201;DHT22;16244;51.956;12.980;2024-02-15T15:10:55;13.30;99.90
29201;DHT22;16244;51.956;12.980;2024-02-15T15:13:40;13.20;99.90
29201;DHT22;16244;51.956;12.980;2024-02-15T15:16:07;13.30;99.90
29201;DHT22;16244;51.956;12.980;2024-02-15T15:18:40;13.20;99.90
29201;DHT22;16244;51.956;12.980;2024-02-15T15:21:09;13.30;99.90
29201;DHT22;16244;51.956;12.980;2024-02-15T15:23:36;13.30;99.90
29201;DHT22;16244;51.956;12.980;2024-02-15T15:26:05;13.20;99.90
29201;DHT22;16244;51.956;12.980;2024-02-15T15:28:33;13.20;99.90
29201;DHT22;16244;51.956;12.980;2024-02-15T15:31:02;13.20;99.90
29201;DHT22;16244;51.956;12.980;2024-02-15T15:33:31;13.20;99.90
29201;DHT22;16244;51.956;12.980;2024-02-15T15:35:59;13.10;99.90
29201;DHT22;16244;51.956;12.980;2024-02-15T15:38:29;13.00;99.90
29201;DHT22;16244;51.956;12.980;2024-02-15T15:40:57;12.90;99.90
29201;DHT22;16244;51.956;12.980;2024-02-15T15:43:26;12.90;99.90
29201;DHT22;16244;51.956;12.980;2024-02-15T15:45:53;12.90;99.90